AirNav   Pilot Hours Calculator
 
 698 users online  

MY72 Isle Airport
Isle, Minnesota, USA

GOING TO ISLE?


FAA INFORMATION EFFECTIVE 09 SEPTEMBER 2021

Location

FAA Identifier: MY72
Lat/Long: 46-09-34.8370N 093-27-40.8510W
46-09.580617N 093-27.680850W
46.1596769,-93.4613475
(estimated)
Elevation: 1271 ft. / 387 m (estimated)
Variation: 03E (1985)
From city: 2 miles NE of ISLE, MN
Time zone: UTC -5 (UTC -6 during Standard Time)
Zip code: 56342

Airport Operations

Airport use: Private use. Permission required prior to landing
Activation date: 07/1956
Control tower: no
ARTCC: MINNEAPOLIS CENTER
FSS: PRINCETON FLIGHT SERVICE STATION
Attendance: UNATNDD
Wind indicator: yes
Segmented circle: no

Airport Communications

CTAF: 122.9
WX AWOS-3 at JMR (18 nm SE): 123.925 (320-679-1629)

Nearby radio navigation aids

NDB name  Hdg/Dist  Freq  Var  ID
RUSH CITY321/35.028202EROS .-. --- ...
PRINCETON007/36.236803EPNM .--. -. --
RIPLEY080/37.040403EXCR -..- -.-. .-.

Airport Services

Parking: tiedowns
Airframe service: NONE
Powerplant service: NONE
Bottled oxygen: NONE
Bulk oxygen: NONE

Runway Information

Runway 16/34

Dimensions: 2460 x 160 ft. / 750 x 49 m
Surface: turf, in fair condition
Runway edge markings: YELLOW CONES.
RUNWAY 16  RUNWAY 34
Traffic pattern: leftleft
Markings: , in good condition, in good condition
Runway end identifier lights: nono
Obstructions: none69 ft. trees, 702 ft. from runway, 182 ft. left of centerline, 10:1 slope to clear

Airport Ownership and Management from official FAA records

Ownership: Publicly-owned
Owner: CITY OF ISLE MINNESOTA
PO BOX 427
ISLE, MN 56342-0427
Phone 320-676-3641
Manager: ISLE FLYING CLUB INC
32308 160TH ST
ISLE, MN 56342-4595
Phone 320-674-0065
OR PATRICK MOENKHAUS 320-674-0065, PMOENKHA@FRONTIER.COM.

Airport Operational Statistics

Aircraft based on the field: 8
Single engine airplanes: 8
    
Aircraft operations: avg 50/month *
83% local general aviation
17% transient general aviation
* for 12-month period ending 30 June 2016

Additional Remarks

FLYING CLUB MEMBERSHIP OR PMSN FM A MEMBER RQRD TO LND.
FOR CD CTC MINNEAPOLIS ARTCC AT 651-463-5588.

Instrument Procedures

There are no published instrument procedures at MY72.

Some nearby airports with instrument procedures:

KJMR - Mora Municipal Airport (18 nm SE)
04W - Field of Dreams Airport (25 nm E)
KAIT - Aitkin Municipal Airport-Steve Kurtz Field (25 nm N)
KHZX - Isedor Iverson Airport (28 nm N)
KMZH - Moose Lake Carlton County Airport (31 nm NE)
 
Loc | Ops | Rwys | IFR | FBO | Links
Com | Nav | Svcs | Stats | Notes
Area around MY72 (Isle Airport)
 
Road maps at: MapQuest Bing Google
 
Aerial photo
WARNING: Photo may not be current or correct
Aerial photo of MY72 (Isle Airport)
Photo by Dan Johnson
Photo taken 07-Nov-2018
looking northeast.

Do you have a better or more recent aerial photo of Isle Airport that you would like to share? If so, please send us your photo.

 
Sectional chart

 
Airport distance calculator
Flying to Isle Airport? Find the distance to fly.

From to MY72

Sunrise and sunset
Times for 17-Sep-2021
 Local
(UTC-5)
 Zulu
(UTC)
Morning civil twilight06:2511:25
Sunrise06:5511:55
Sunset19:2100:21
Evening civil twilight19:5100:51

Current date and time
Zulu (UTC)  18-Sep-2021 04:12:09
Local (UTC-5)  17-Sep-2021 23:12:09
 
METAR
KJMR 
18nm SE 
180355Z AUTO 00000KT 07/06 A3021 RMK AO2 PWINO TSNO
KAIT 
24nm N 
180355Z AUTO 00000KT 5SM BR CLR 04/03 A3019 RMK AO2
K04W 
25nm E 
180355Z AUTO 00000KT 10SM CLR 07/07 A3020 RMK AO2
KHZX 
28nm N 
180355Z AUTO 00000KT 10SM CLR 06/05 A3020 RMK AO2
KBRD 
31nm NW 
180353Z AUTO 00000KT 10SM CLR 07/06 A3020 RMK AO2 SLP231 T00720056 TSNO
KMZH 
31nm NE 
180355Z AUTO 00000KT 10SM CLR 07/06 A3018 RMK AO2
KROS 
35nm SE 
180355Z AUTO 00000KT 10SM SCT110 08/07 A3020 RMK AO2 T00780065
TAF
KBRD 
31nm NW 
171729Z 1718/1818 30014G22KT P6SM SKC FM172300 30007KT P6SM SKC FM181500 17008KT P6SM SKC
NOTAMs
Click for the latest NOTAMs
NOTAMs are issued by the DoD/FAA and will open in a separate window not controlled by AirNav.

 

 
 

Would you like to see your business listed on this page?

 If your business provides an interesting product or service to pilots, flight crews, aircraft, or users of the Isle Airport, you should consider listing it here.  To start the listing process, click on the button below
 
Add a business
 

Other Pages about Isle Airport

Update a link
 
Copyright © AirNav, LLC. All rights reserved. Privacy Policy  Contact